Time;durP1;ratioP1;P1;durP2;ratioP2;P2;SDS_P1;SDS_P2;PMS_P1;PMS_P2;Temp;Humidity;BMP_temperature;BMP_pressure;BME280_temperature;BME280_humidity;BME280_pressure;Samples;Min_cycle;Max_cycle;Signal;HPM_P1;HPM_P2
2021/03/18 00:01:23;;;;;;;6.20;3.92;;;;;;;18.67;50.81;102909.09;5066928;28;20024;-70
2021/03/18 00:03:50;;;;;;;6.70;4.55;;;;;;;18.69;50.70;102907.41;5069083;28;20517;-70
2021/03/18 00:06:16;;;;;;;4.63;3.72;;;;;;;18.70;50.76;102917.00;5069101;28;20040;-70
2021/03/18 00:08:42;;;;;;;5.65;3.08;;;;;;;18.71;50.64;102908.31;5071282;28;20031;-70
2021/03/18 00:11:11;;;;;;;4.40;3.35;;;;;;;18.65;50.76;102895.06;5071651;28;20032;-70
2021/03/18 00:13:38;;;;;;;4.97;3.53;;;;;;;18.70;50.63;102903.91;5053657;28;20028;-70
2021/03/18 00:16:05;;;;;;;4.68;3.20;;;;;;;18.66;50.85;102895.94;5047982;28;20020;-70
2021/03/18 00:18:37;;;;;;;4.93;3.28;;;;;;;18.67;50.82;102887.22;5069494;28;20097;-70
2021/03/18 00:21:03;;;;;;;4.78;3.10;;;;;;;18.69;50.71;102894.31;5072018;28;20028;-70
2021/03/18 00:23:29;;;;;;;4.93;3.13;;;;;;;18.67;50.78;102887.22;5069920;28;22147;-70
2021/03/18 00:25:54;;;;;;;5.40;3.70;;;;;;;18.64;50.57;102877.56;5052050;28;20047;-70
2021/03/18 00:28:21;;;;;;;5.07;3.10;;;;;;;18.69;50.77;102877.69;5038650;28;20089;-70
2021/03/18 00:30:46;;;;;;;4.20;3.20;;;;;;;18.63;50.79;102880.13;5052421;28;20379;-70
2021/03/18 00:33:12;;;;;;;5.53;3.63;;;;;;;18.68;50.67;102882.03;5050475;28;20032;-70
2021/03/18 00:35:37;;;;;;;4.75;3.25;;;;;;;18.65;50.73;102881.94;5072204;28;20028;-70
2021/03/18 00:38:03;;;;;;;4.07;3.60;;;;;;;18.63;50.76;102885.38;5071017;28;20033;-70
2021/03/18 00:41:08;;;;;;;3.55;3.20;;;;;;;18.66;50.83;102883.72;5050126;28;20429;-70
2021/03/18 00:43:34;;;;;;;4.18;3.28;;;;;;;18.67;50.66;102879.38;5071550;28;20040;-70
2021/03/18 00:46:00;;;;;;;5.07;3.30;;;;;;;18.63;50.79;102867.03;5071257;28;20340;-70
2021/03/18 00:48:25;;;;;;;4.07;2.80;;;;;;;18.63;50.62;102874.88;5053502;28;20033;-70
2021/03/18 00:51:00;;;;;;;4.80;3.22;;;;;;;18.63;50.97;102878.41;5074628;28;20025;-70
2021/03/18 00:53:37;;;;;;;4.10;2.97;;;;;;;18.64;50.74;102888.03;5067274;28;20036;-70
2021/03/18 00:56:05;;;;;;;5.22;3.63;;;;;;;18.64;50.70;102885.41;5052031;28;20070;-70
2021/03/18 00:58:30;;;;;;;4.38;3.63;;;;;;;18.64;50.68;102893.28;5067005;28;20029;-70
2021/03/18 01:00:58;;;;;;;4.15;2.92;;;;;;;18.59;50.58;102886.13;5070826;28;20027;-70
2021/03/18 01:03:26;;;;;;;5.03;3.00;;;;;;;18.63;50.79;102888.00;5055885;28;20064;-70
2021/03/18 01:05:53;;;;;;;3.78;3.20;;;;;;;18.62;51.45;102892.34;5075163;28;20548;-70
2021/03/18 01:08:22;;;;;;;5.47;3.42;;;;;;;18.63;50.64;102885.38;5072156;28;20067;-70
2021/03/18 01:10:51;;;;;;;5.00;3.90;;;;;;;18.56;50.74;102882.53;5056050;28;20497;-70
2021/03/18 01:13:19;;;;;;;4.45;3.40;;;;;;;18.62;50.76;102880.97;5072752;28;20028;-70
2021/03/18 01:15:57;;;;;;;3.60;2.90;;;;;;;18.56;50.40;102876.44;5055993;28;20024;-70
2021/03/18 01:18:28;;;;;;;3.97;3.17;;;;;;;18.57;50.60;102883.41;5069858;28;20025;-70
2021/03/18 01:20:54;;;;;;;3.60;3.03;;;;;;;18.61;50.32;102898.44;5055484;28;20423;-70
2021/03/18 01:23:19;;;;;;;4.20;3.38;;;;;;;18.57;50.73;102889.56;5074084;28;20028;-70
2021/03/18 01:25:45;;;;;;;4.20;3.13;;;;;;;18.57;50.81;102883.41;5074027;28;20359;-70
2021/03/18 01:28:10;;;;;;;3.88;3.42;;;;;;;18.59;50.73;102881.78;5053916;28;20039;-70
2021/03/18 01:30:38;;;;;;;6.22;2.88;;;;;;;18.59;50.45;102880.88;5037577;28;20086;-70
2021/03/18 01:33:05;;;;;;;4.68;3.17;;;;;;;18.59;50.77;102873.03;5070430;28;20033;-70
2021/03/18 01:35:31;;;;;;;4.45;2.95;;;;;;;18.54;50.62;102870.25;5074994;28;20379;-70
2021/03/18 01:37:56;;;;;;;3.90;3.00;;;;;;;18.55;50.98;102870.31;5053555;28;20035;-70
2021/03/18 01:40:24;;;;;;;5.88;3.97;;;;;;;18.57;50.75;102873.84;5039560;28;20498;-70
2021/03/18 01:42:50;;;;;;;4.78;3.15;;;;;;;18.58;50.91;102866.91;5072132;28;20081;-70
2021/03/18 01:45:16;;;;;;;3.58;3.08;;;;;;;18.56;50.74;102855.47;5073670;28;20029;-70
2021/03/18 01:47:44;;;;;;;4.90;3.10;;;;;;;18.56;50.81;102845.00;5071721;28;20031;-70
2021/03/18 01:50:12;;;;;;;4.18;3.30;;;;;;;18.56;50.80;102850.25;5057352;28;20055;-70
2021/03/18 01:52:38;;;;;;;4.72;3.00;;;;;;;18.56;50.75;102839.75;5048998;28;20024;-70
2021/03/18 01:55:06;;;;;;;4.82;2.97;;;;;;;18.51;50.81;102823.91;5073453;28;20024;-70
2021/03/18 01:57:31;;;;;;;4.72;3.25;;;;;;;18.56;50.63;102826.66;5070727;28;20025;-70
2021/03/18 01:59:56;;;;;;;7.68;3.30;;;;;;;18.55;50.79;102827.50;5054933;28;20054;-71
2021/03/18 02:02:22;;;;;;;3.35;2.75;;;;;;;18.54;50.66;102838.81;5039982;28;20028;-71
2021/03/18 02:04:48;;;;;;;4.85;3.42;;;;;;;18.51;50.58;102823.00;5055584;28;20120;-70
2021/03/18 02:07:13;;;;;;;5.15;3.22;;;;;;;18.49;50.67;102828.22;5037286;28;20033;-70
2021/03/18 02:09:39;;;;;;;5.18;3.65;;;;;;;18.54;50.75;102846.69;5035934;28;20029;-70
2021/03/18 02:12:05;;;;;;;5.13;3.50;;;;;;;18.39;50.75;102826.19;5056154;28;20390;-69
2021/03/18 02:14:30;;;;;;;4.47;3.40;;;;;;;18.51;50.72;102842.25;5068855;28;20026;-70
2021/03/18 02:17:01;;;;;;;3.60;2.72;;;;;;;18.52;51.00;102833.53;5052460;28;20464;-71
2021/03/18 02:19:33;;;;;;;5.05;2.92;;;;;;;18.51;50.89;102831.75;5054922;28;20382;-70
2021/03/18 02:22:36;;;;;;;5.18;3.42;;;;;;;18.52;50.94;102824.78;5071640;28;20374;-70
2021/03/18 02:25:25;;;;;;;7.45;3.60;;;;;;;18.51;50.96;102815.16;5051505;28;20498;-72
2021/03/18 02:28:09;;;;;;;5.10;3.55;;;;;;;18.51;51.21;102821.28;5065658;28;20086;-70
2021/03/18 02:30:50;;;;;;;;;;;;;;;18.54;50.61;102820.47;5055260;28;20111;-70
2021/03/18 02:33:19;;;;;;;4.95;3.30;;;;;;;18.54;50.90;102810.88;5055317;28;20362;-70
2021/03/18 02:35:46;;;;;;;3.78;2.78;;;;;;;18.51;50.89;102802.06;5070487;28;20068;-70
2021/03/18 02:38:31;;;;;;;4.45;2.42;;;;;;;18.43;50.88;102782.66;5070566;28;20377;-70
2021/03/18 02:41:05;;;;;;;3.40;2.75;;;;;;;18.48;50.77;102794.09;5069641;28;20025;-70
2021/03/18 02:43:37;;;;;;;5.45;3.08;;;;;;;18.47;50.82;102779.22;5049308;28;20091;-70
2021/03/18 02:46:03;;;;;;;4.97;2.80;;;;;;;18.49;50.74;102790.66;5048665;28;20090;-71
2021/03/18 02:48:35;;;;;;;5.50;3.47;;;;;;;18.49;50.91;102795.88;5029110;28;20025;-70
2021/03/18 02:51:02;;;;;;;4.87;3.03;;;;;;;18.42;50.69;102778.25;5066391;28;20032;-70
2021/03/18 02:53:31;;;;;;;3.90;2.75;;;;;;;18.45;50.79;102781.81;5053086;28;20025;-70
2021/03/18 02:56:00;;;;;;;3.67;2.78;;;;;;;18.48;50.67;102789.75;5074723;28;20037;-70
2021/03/18 02:58:29;;;;;;;4.65;3.10;;;;;;;18.35;50.76;102763.19;5069434;28;20025;-71
2021/03/18 03:00:57;;;;;;;4.13;3.08;;;;;;;18.42;50.75;102780.88;5068103;28;20079;-70
2021/03/18 03:03:23;;;;;;;5.22;2.83;;;;;;;18.47;50.71;102787.09;5050574;28;569063;-70
2021/03/18 03:05:54;;;;;;;5.13;3.17;;;;;;;18.46;50.73;102783.59;5071551;28;20041;-70
2021/03/18 03:08:23;;;;;;;3.83;2.83;;;;;;;18.45;50.58;102780.91;5071008;28;20039;-70
2021/03/18 03:10:52;;;;;;;6.28;3.15;;;;;;;18.47;50.70;102782.75;5054313;28;20035;-70
2021/03/18 03:13:18;;;;;;;4.18;2.90;;;;;;;18.46;50.57;102782.69;5054990;28;20024;-70
2021/03/18 03:15:44;;;;;;;3.15;2.35;;;;;;;18.45;50.87;102784.44;5055434;28;20021;-70
2021/03/18 03:18:12;;;;;;;6.07;4.13;;;;;;;18.43;50.75;102777.41;5072892;28;20031;-70
2021/03/18 03:20:39;;;;;;;3.90;2.85;;;;;;;18.42;50.71;102771.28;5067894;28;20024;-70
2021/03/18 03:23:07;;;;;;;4.90;2.85;;;;;;;18.38;50.91;102761.56;5052990;28;20056;-70
2021/03/18 03:25:37;;;;;;;3.42;2.50;;;;;;;18.44;50.74;102773.91;5052955;28;20096;-70
2021/03/18 03:28:04;;;;;;;6.18;3.60;;;;;;;18.42;50.72;102773.00;5053201;28;20491;-70
2021/03/18 03:30:30;;;;;;;3.30;2.60;;;;;;;18.44;51.01;102781.75;5053718;28;20031;-70
2021/03/18 03:32:56;;;;;;;4.72;3.35;;;;;;;18.38;51.01;102784.25;5052170;28;20039;-70
2021/03/18 03:35:22;;;;;;;3.95;2.97;;;;;;;18.40;50.70;102788.69;5072017;28;20020;-70
2021/03/18 03:37:48;;;;;;;7.00;3.50;;;;;;;18.42;50.98;102778.25;5068604;28;20036;-70
2021/03/18 03:40:16;;;;;;;6.53;3.35;;;;;;;18.39;50.64;102779.06;5070000;28;20109;-70
2021/03/18 03:42:43;;;;;;;4.57;2.53;;;;;;;18.38;50.90;102776.38;5051872;28;20029;-70
2021/03/18 03:45:11;;;;;;;7.72;3.95;;;;;;;18.42;50.97;102786.09;5068337;28;20063;-70
2021/03/18 03:47:36;;;;;;;3.90;3.00;;;;;;;18.38;50.79;102779.91;5072189;28;20112;-70
2021/03/18 03:50:04;;;;;;;5.20;2.40;;;;;;;18.40;50.78;102785.19;5073783;28;20104;-70
2021/03/18 03:52:57;;;;;;;4.32;2.95;;;;;;;18.34;50.96;102771.91;5065890;28;20383;-70
2021/03/18 03:55:34;;;;;;;6.38;3.25;;;;;;;18.40;50.93;102772.06;5067551;28;21621;-70
2021/03/18 03:58:40;;;;;;;4.80;2.83;;;;;;;18.39;50.82;102767.69;5072069;28;20108;-70
2021/03/18 04:01:15;;;;;;;3.97;2.78;;;;;;;18.39;50.72;102762.44;5065983;28;20402;-70
2021/03/18 04:03:40;;;;;;;3.45;2.45;;;;;;;18.39;50.85;102754.59;5070814;28;20044;-70
2021/03/18 04:06:07;;;;;;;5.25;2.60;;;;;;;18.29;50.65;102724.66;5038047;28;20082;-70
2021/03/18 04:08:36;;;;;;;5.47;3.28;;;;;;;18.36;50.87;102738.78;5040075;28;20511;-70
2021/03/18 04:11:02;;;;;;;4.45;2.58;;;;;;;18.33;51.11;102736.06;5053756;28;20429;-70
2021/03/18 04:13:30;;;;;;;4.53;2.60;;;;;;;18.37;50.60;102737.94;5072227;28;20098;-70
2021/03/18 04:15:58;;;;;;;2.58;2.15;;;;;;;18.35;50.76;102734.38;5053967;28;20028;-71
2021/03/18 04:18:27;;;;;;;4.55;3.08;;;;;;;18.36;50.66;102733.53;5067659;28;20111;-70
2021/03/18 04:20:55;;;;;;;4.97;2.78;;;;;;;18.31;51.00;102724.66;5054177;28;20084;-70
2021/03/18 04:23:22;;;;;;;4.88;3.38;;;;;;;18.35;50.86;102737.00;5068278;28;20063;-70
2021/03/18 04:25:47;;;;;;;7.32;3.28;;;;;;;18.36;50.57;102739.66;5053241;28;20032;-70
2021/03/18 04:28:14;;;;;;;4.57;2.92;;;;;;;18.31;50.63;102730.78;5053932;28;20032;-70
2021/03/18 04:30:41;;;;;;;7.05;3.05;;;;;;;18.35;50.73;102739.63;5036563;28;20037;-70
2021/03/18 04:33:07;;;;;;;8.35;2.90;;;;;;;18.34;50.87;102738.75;5036308;28;20085;-70
2021/03/18 04:35:33;;;;;;;4.20;2.53;;;;;;;18.33;50.81;102738.69;5052788;28;20021;-70
2021/03/18 04:38:02;;;;;;;4.82;3.15;;;;;;;18.31;50.65;102738.66;5070077;28;20028;-70
2021/03/18 04:40:28;;;;;;;3.50;2.50;;;;;;;18.34;50.81;102740.47;5052048;28;20094;-70
2021/03/18 04:42:53;;;;;;;4.15;2.90;;;;;;;18.33;50.73;102728.22;5068525;28;20494;-70
2021/03/18 04:45:21;;;;;;;4.28;2.70;;;;;;;18.26;51.12;102714.09;5067076;28;20064;-70
2021/03/18 04:47:49;;;;;;;4.85;2.17;;;;;;;18.30;51.05;102713.34;5051186;28;20032;-70
2021/03/18 04:50:20;;;;;;;4.30;3.22;;;;;;;18.19;50.79;102693.81;5063687;28;20106;-70
2021/03/18 04:52:45;;;;;;;4.05;2.78;;;;;;;18.29;50.80;102710.69;5064131;28;20326;-71
2021/03/18 04:55:12;;;;;;;4.63;2.50;;;;;;;18.32;50.71;102715.97;5036979;28;20103;-70
2021/03/18 04:57:42;;;;;;;3.72;2.65;;;;;;;18.32;50.74;102708.13;5068694;28;20370;-70
2021/03/18 05:00:10;;;;;;;4.93;3.35;;;;;;;18.30;50.46;102709.84;5068331;28;20475;-70
2021/03/18 05:02:38;;;;;;;5.47;2.78;;;;;;;18.27;50.60;102709.75;5076951;28;20037;-70
2021/03/18 05:05:05;;;;;;;3.35;2.50;;;;;;;18.30;50.77;102731.69;5068984;28;20479;-70
2021/03/18 05:07:31;;;;;;;3.45;2.50;;;;;;;18.26;50.77;102724.56;5035502;28;20483;-70
2021/03/18 05:09:57;;;;;;;5.03;2.72;;;;;;;18.25;50.67;102708.81;5069870;28;20169;-70
2021/03/18 05:12:23;;;;;;;3.35;2.13;;;;;;;18.21;51.03;102708.72;5068025;28;20538;-70
2021/03/18 05:14:48;;;;;;;4.43;2.88;;;;;;;18.21;51.00;102710.47;5052814;28;20032;-70
2021/03/18 05:17:16;;;;;;;4.90;2.80;;;;;;;18.26;51.08;102724.56;5068130;28;20032;-70
2021/03/18 05:19:42;;;;;;;5.47;3.38;;;;;;;18.25;50.92;102714.06;5071488;28;20383;-70
2021/03/18 05:22:08;;;;;;;4.97;3.05;;;;;;;18.20;50.86;102698.22;5053869;28;20021;-71
2021/03/18 05:24:37;;;;;;;5.95;2.47;;;;;;;18.25;50.82;102717.56;5071675;28;20108;-70
2021/03/18 05:27:02;;;;;;;5.63;2.88;;;;;;;18.25;50.58;102724.53;5065230;28;20140;-70
2021/03/18 05:29:28;;;;;;;3.80;3.03;;;;;;;18.28;51.14;102733.38;5065167;28;20111;-71
2021/03/18 05:31:53;;;;;;;4.75;2.60;;;;;;;18.27;50.70;102726.34;5052948;28;20455;-71
2021/03/18 05:34:18;;;;;;;6.55;3.13;;;;;;;18.27;50.44;102725.47;5054179;28;20024;-71
2021/03/18 05:36:44;;;;;;;4.15;2.83;;;;;;;18.29;50.65;102719.44;5051895;28;20039;-70
2021/03/18 05:39:09;;;;;;;4.32;2.28;;;;;;;18.37;50.65;102724.84;5068825;28;20028;-71
2021/03/18 05:41:35;;;;;;;2.85;2.20;;;;;;;18.48;50.36;102729.50;5053601;28;20037;-70
2021/03/18 05:44:01;;;;;;;4.50;2.80;;;;;;;18.55;50.31;102715.72;5051651;28;20036;-71
2021/03/18 05:46:26;;;;;;;3.63;2.10;;;;;;;18.50;50.26;102716.44;5067058;28;20513;-73
2021/03/18 05:48:52;;;;;;;3.80;2.53;;;;;;;18.54;50.46;102710.44;5069744;28;20032;-71
2021/03/18 05:51:19;;;;;;;2.58;1.85;;;;;;;18.67;50.20;102711.66;5055869;28;20082;-70
2021/03/18 05:53:46;;;;;;;3.58;2.25;;;;;;;18.70;50.10;102706.47;5044024;28;20048;-70
2021/03/18 05:56:22;;;;;;;6.57;2.97;;;;;;;18.65;50.30;102697.63;5075758;28;20059;-70
2021/03/18 05:58:49;;;;;;;2.78;2.20;;;;;;;18.66;50.20;102689.81;5063639;28;20021;-70
2021/03/18 06:01:15;;;;;;;6.68;2.88;;;;;;;18.77;49.76;102701.41;5024089;28;20156;-70
2021/03/18 06:03:41;;;;;;;3.05;2.13;;;;;;;18.79;50.00;102694.47;5054038;28;20045;-70
2021/03/18 06:06:08;;;;;;;3.67;2.40;;;;;;;18.72;50.08;102689.94;5070714;28;20363;-70
2021/03/18 06:08:34;;;;;;;3.90;1.90;;;;;;;18.76;50.22;102690.91;5072489;28;20028;-72
2021/03/18 06:11:00;;;;;;;3.17;1.83;;;;;;;18.89;49.96;102695.56;5054182;28;20032;-72
2021/03/18 06:13:26;;;;;;;2.40;2.00;;;;;;;18.83;49.96;102674.44;5055137;28;20056;-72
2021/03/18 06:15:51;;;;;;;2.90;1.90;;;;;;;18.81;49.98;102671.81;5054207;28;20070;-72
2021/03/18 06:18:20;;;;;;;5.80;2.53;;;;;;;18.89;49.94;102667.63;5071277;28;20032;-72
2021/03/18 06:20:52;;;;;;;5.40;2.90;;;;;;;18.94;49.88;102659.88;5054336;28;20068;-72
2021/03/18 06:23:18;;;;;;;4.13;2.17;;;;;;;18.99;49.85;102650.34;5048540;28;20451;-73
2021/03/18 06:25:44;;;;;;;3.60;2.30;;;;;;;19.02;49.66;102660.03;5056682;28;20111;-72
2021/03/18 06:28:32;;;;;;;4.00;2.63;;;;;;;18.98;49.86;102663.41;5056801;28;20397;-72
2021/03/18 06:31:01;;;;;;;3.05;2.00;;;;;;;19.01;49.97;102660.88;5055085;28;20036;-72
2021/03/18 06:33:38;;;;;;;5.70;2.30;;;;;;;19.02;49.78;102663.53;5052527;28;20107;-72
2021/03/18 06:36:18;;;;;;;4.72;2.85;;;;;;;18.89;49.33;102661.50;5053305;28;20044;-72
2021/03/18 06:38:56;;;;;;;4.25;2.67;;;;;;;18.92;49.72;102670.31;5069723;28;20029;-73
2021/03/18 06:41:42;;;;;;;3.63;2.42;;;;;;;18.99;49.73;102665.19;5073508;28;20035;-74
2021/03/18 06:44:23;;;;;;;6.68;3.28;;;;;;;19.02;49.50;102649.53;5050933;28;20029;-73
2021/03/18 06:46:49;;;;;;;11.73;3.67;;;;;;;19.00;49.80;102651.22;5072587;28;20020;-75
2021/03/18 06:49:17;;;;;;;7.70;2.65;;;;;;;19.02;49.60;102647.81;5073385;28;20116;-71
2021/03/18 06:51:44;;;;;;;6.60;3.10;;;;;;;19.08;49.62;102641.81;5055510;28;20069;-70
2021/03/18 06:54:21;;;;;;;5.45;2.92;;;;;;;19.07;49.81;102640.94;5046635;28;20020;-71
2021/03/18 06:57:00;;;;;;;6.43;2.70;;;;;;;19.03;49.66;102635.56;5067955;28;20032;-70
2021/03/18 06:59:31;;;;;;;7.10;3.10;;;;;;;19.04;49.71;102629.47;5039042;28;20020;-69
2021/03/18 07:02:13;;;;;;;5.80;3.35;;;;;;;19.05;49.75;102640.00;5046550;28;20454;-70
2021/03/18 07:04:47;;;;;;;6.13;2.85;;;;;;;19.06;50.08;102646.13;5065685;28;20052;-70
2021/03/18 07:07:13;;;;;;;4.72;2.90;;;;;;;19.06;49.84;102630.41;5040725;28;20032;-70
2021/03/18 07:09:40;;;;;;;3.97;2.63;;;;;;;19.13;49.85;102646.28;5037727;28;20031;-70
2021/03/18 07:12:08;;;;;;;6.47;2.78;;;;;;;19.10;49.77;102648.84;5057071;28;20369;-70
2021/03/18 07:14:35;;;;;;;10.13;3.92;;;;;;;19.05;49.97;102647.88;5037752;28;20029;-71
2021/03/18 07:17:01;;;;;;;3.72;2.33;;;;;;;19.07;49.74;102646.19;5054372;28;20036;-72
2021/03/18 07:19:28;;;;;;;4.47;2.60;;;;;;;19.08;49.79;102641.81;5066093;28;20100;-71
2021/03/18 07:21:55;;;;;;;4.82;2.28;;;;;;;19.10;49.83;102648.84;5050615;28;20048;-71
2021/03/18 07:24:23;;;;;;;3.38;2.10;;;;;;;19.06;49.76;102648.75;5064499;28;20064;-70
2021/03/18 07:26:49;;;;;;;4.40;2.45;;;;;;;19.14;49.92;102655.03;5069416;28;20074;-70
2021/03/18 07:29:17;;;;;;;5.25;2.63;;;;;;;19.17;49.80;102665.59;5068079;28;20040;-70
2021/03/18 07:31:43;;;;;;;4.40;3.03;;;;;;;19.13;49.76;102672.50;5050286;28;20030;-70
2021/03/18 07:34:09;;;;;;;6.20;2.47;;;;;;;19.19;49.74;102666.53;5066809;28;20032;-70
2021/03/18 07:36:37;;;;;;;3.85;1.98;;;;;;;19.19;49.46;102666.53;5052906;28;20120;-73
2021/03/18 07:39:04;;;;;;;5.45;2.45;;;;;;;19.17;49.90;102653.38;5072068;28;20036;-70
2021/03/18 07:41:32;;;;;;;4.68;2.28;;;;;;;19.16;49.89;102648.09;5053367;28;20170;-70
2021/03/18 07:43:58;;;;;;;3.63;2.40;;;;;;;19.20;49.85;102642.94;5066847;28;20029;-71
2021/03/18 07:46:25;;;;;;;4.43;1.83;;;;;;;19.15;49.58;102617.47;5061023;28;20039;-72
2021/03/18 07:48:55;;;;;;;3.70;2.42;;;;;;;19.21;49.76;102628.97;5037863;28;20036;-71
2021/03/18 07:51:21;;;;;;;2.90;2.05;;;;;;;19.27;49.68;102631.72;5068629;28;20103;-72
2021/03/18 07:53:49;;;;;;;3.22;1.90;;;;;;;19.26;49.75;102627.31;5066105;28;20082;-71
2021/03/18 07:56:15;;;;;;;3.60;2.28;;;;;;;19.22;49.89;102625.47;5062894;28;20058;-71
2021/03/18 07:58:43;;;;;;;5.78;2.50;;;;;;;19.24;49.85;102634.28;5046277;28;20120;-70
2021/03/18 08:01:30;;;;;;;3.22;2.05;;;;;;;19.31;49.70;102642.28;5060553;28;20021;-71
2021/03/18 08:04:01;;;;;;;5.03;2.42;;;;;;;19.27;49.77;102636.06;5064351;28;20482;-71
2021/03/18 08:06:38;;;;;;;3.35;1.60;;;;;;;19.26;49.90;102637.81;5070421;28;20428;-71
2021/03/18 08:09:13;;;;;;;4.38;2.42;;;;;;;19.31;49.68;102635.28;5062836;28;20114;-71
2021/03/18 08:11:39;;;;;;;3.90;1.85;;;;;;;19.33;49.75;102641.47;5042979;28;20432;-71
2021/03/18 08:14:11;;;;;;;3.38;2.20;;;;;;;19.28;49.74;102643.97;5049434;28;20119;-71
2021/03/18 08:16:37;;;;;;;3.00;1.98;;;;;;;19.28;49.75;102637.84;5070115;28;20119;-71
2021/03/18 08:19:05;;;;;;;3.38;2.00;;;;;;;19.35;49.59;102650.22;5067330;28;20105;-71
2021/03/18 08:21:38;;;;;;;4.15;1.88;;;;;;;19.32;49.64;102638.81;5050641;28;20024;-71
2021/03/18 08:24:06;;;;;;;3.35;2.00;;;;;;;19.22;49.54;102630.72;5063130;28;20036;-72
2021/03/18 08:26:42;;;;;;;2.55;1.67;;;;;;;19.32;49.67;102639.69;5067764;28;20024;-71
2021/03/18 08:29:13;;;;;;;4.10;2.17;;;;;;;19.33;49.66;102630.09;5049971;28;20024;-71
2021/03/18 08:31:45;;;;;;;2.25;1.55;;;;;;;19.24;49.69;102631.66;5072577;28;20039;-75
2021/03/18 08:34:10;;;;;;;4.13;2.33;;;;;;;19.28;49.72;102629.97;5039535;28;20041;-76
2021/03/18 08:36:37;;;;;;;3.00;2.28;;;;;;;19.35;49.77;102633.59;5024013;28;20027;-75
2021/03/18 08:39:32;;;;;;;2.47;1.67;;;;;;;19.29;49.58;102634.38;5072146;28;20117;-75
2021/03/18 08:41:58;;;;;;;2.70;1.83;;;;;;;19.28;49.62;102628.25;5048488;28;20389;-75
2021/03/18 08:44:41;;;;;;;2.80;1.92;;;;;;;19.35;49.54;102624.00;5072958;28;20021;-75
2021/03/18 08:47:11;;;;;;;3.47;1.70;;;;;;;19.36;49.64;102631.00;5052098;28;20028;-75
2021/03/18 08:49:36;;;;;;;3.85;1.98;;;;;;;19.34;49.79;102629.22;5072645;28;20032;-75
2021/03/18 08:52:07;;;;;;;3.40;1.73;;;;;;;19.37;49.63;102630.16;5071551;28;20487;-75
2021/03/18 08:54:39;;;;;;;3.75;1.75;;;;;;;19.37;49.49;102624.91;5054627;28;20074;-75
2021/03/18 08:57:23;;;;;;;3.85;2.08;;;;;;;19.29;49.79;102610.78;5050904;28;20059;-75
2021/03/18 08:59:55;;;;;;;3.55;1.70;;;;;;;19.32;49.54;102613.47;5052866;28;20487;-75
2021/03/18 09:02:34;;;;;;;2.25;1.52;;;;;;;19.40;49.68;102621.47;5052868;28;20082;-75
2021/03/18 09:05:05;;;;;;;2.97;1.85;;;;;;;19.36;49.56;102622.25;5052526;28;20056;-76
2021/03/18 09:07:32;;;;;;;2.75;1.60;;;;;;;19.35;49.35;102626.59;5063140;28;20024;-75
2021/03/18 09:10:11;;;;;;;2.88;1.63;;;;;;;19.38;49.38;102625.78;5068789;28;20111;-75
2021/03/18 09:12:42;;;;;;;3.67;1.98;;;;;;;19.38;49.61;102636.28;5072545;28;20458;-76
2021/03/18 09:15:22;;;;;;;2.97;1.48;;;;;;;19.31;49.71;102629.16;5054557;28;20382;-74
2021/03/18 09:17:51;;;;;;;2.80;1.60;;;;;;;19.38;49.53;102631.94;5037874;28;20028;-76
2021/03/18 09:20:21;;;;;;;3.30;1.40;;;;;;;19.36;49.45;102633.63;5047619;28;20483;-77
2021/03/18 09:22:47;;;;;;;1.90;1.23;;;;;;;19.40;49.58;102639.84;5062937;28;20029;-75
2021/03/18 09:25:13;;;;;;;4.38;1.55;;;;;;;19.42;49.45;102633.75;5057680;28;20480;-74
2021/03/18 09:27:41;;;;;;;3.15;1.48;;;;;;;19.48;49.53;102630.34;5058180;28;20108;-74
2021/03/18 09:30:24;;;;;;;1.80;1.08;;;;;;;19.46;49.52;102629.47;5075721;28;20036;-75
2021/03/18 09:32:51;;;;;;;2.75;1.60;;;;;;;19.49;49.61;102633.03;5074253;28;20028;-74
2021/03/18 09:35:18;;;;;;;2.65;1.52;;;;;;;19.53;49.52;102632.25;5074964;28;20040;-75
2021/03/18 09:37:44;;;;;;;3.10;1.33;;;;;;;19.48;49.54;102614.63;5076118;28;20017;-75
2021/03/18 09:40:11;;;;;;;2.50;1.45;;;;;;;19.51;49.40;102620.84;5041523;28;20513;-75
2021/03/18 09:42:38;;;;;;;2.60;1.67;;;;;;;19.60;49.50;102623.63;5058000;28;20103;-75
2021/03/18 09:45:06;;;;;;;3.00;1.73;;;;;;;19.58;49.62;102620.13;5074151;28;20499;-74
2021/03/18 09:47:31;;;;;;;2.53;1.48;;;;;;;19.57;49.31;102613.09;5070254;28;20024;-75
2021/03/18 09:49:56;;;;;;;2.47;1.45;;;;;;;19.61;49.43;102614.91;5053912;28;20441;-76
2021/03/18 09:52:25;;;;;;;3.25;1.33;;;;;;;19.66;49.63;102614.13;5072592;28;20034;-76
2021/03/18 09:54:51;;;;;;;1.92;1.30;;;;;;;19.58;49.61;102593.88;5075129;28;20036;-77
2021/03/18 09:57:39;;;;;;;1.83;1.13;;;;;;;19.54;49.92;102588.53;5055793;28;22297;-77
2021/03/18 10:00:16;;;;;;;2.17;1.25;;;;;;;19.61;49.46;102603.53;5746423;22;20020;-76
2021/03/18 10:02:42;;;;;;;2.67;1.08;;;;;;;19.66;49.49;102606.25;5040939;28;20091;-75
2021/03/18 10:05:08;;;;;;;1.83;1.30;;;;;;;19.66;49.42;102607.13;5040559;28;20495;-76
2021/03/18 10:07:34;;;;;;;1.80;1.20;;;;;;;19.66;49.56;102598.38;5009174;28;20036;-76
2021/03/18 10:10:00;;;;;;;3.33;1.73;;;;;;;19.70;49.57;102602.81;5059287;28;20115;-77
2021/03/18 10:12:26;;;;;;;1.92;1.23;;;;;;;19.69;49.32;102593.19;5058995;28;20478;-77
2021/03/18 10:15:10;;;;;;;3.25;1.33;;;;;;;19.70;49.56;102589.72;5047651;28;20028;-76
2021/03/18 10:17:41;;;;;;;2.42;1.27;;;;;;;19.69;49.03;102590.56;5046481;28;20036;-76
2021/03/18 10:20:16;;;;;;;2.15;1.52;;;;;;;19.69;49.46;102588.81;5055180;28;20031;-77
2021/03/18 10:22:46;;;;;;;1.85;1.40;;;;;;;19.68;49.50;102587.03;5056983;28;20112;-77
2021/03/18 10:25:24;;;;;;;1.50;1.13;;;;;;;19.63;49.35;102580.81;5030633;28;20044;-77
2021/03/18 10:27:57;;;;;;;3.85;0.95;;;;;;;19.70;49.66;102574.84;5044370;28;20024;-76
2021/03/18 10:30:24;;;;;;;1.90;1.15;;;;;;;19.68;49.32;102570.41;5029842;28;20025;-76
2021/03/18 10:33:03;;;;;;;1.90;1.08;;;;;;;19.60;49.62;102555.41;5038336;28;20032;-76
2021/03/18 10:35:30;;;;;;;2.63;1.38;;;;;;;19.63;49.71;102562.44;5038391;28;20025;-76
2021/03/18 10:37:56;;;;;;;2.28;1.70;;;;;;;19.70;49.57;102577.47;5048576;28;20532;-77
2021/03/18 10:40:28;;;;;;;3.97;1.60;;;;;;;19.64;49.61;102569.47;5029955;28;20061;-77
2021/03/18 10:42:57;;;;;;;1.90;1.17;;;;;;;19.64;49.59;102579.97;5050346;28;20024;-77
2021/03/18 10:45:44;;;;;;;1.90;1.02;;;;;;;19.70;49.79;102584.47;5021221;28;20017;-76
2021/03/18 10:48:10;;;;;;;2.35;0.95;;;;;;;19.68;49.54;102578.28;5047347;28;20051;-77
2021/03/18 10:50:38;;;;;;;1.83;1.10;;;;;;;19.69;49.63;102578.31;5037427;28;20037;-77
2021/03/18 10:53:07;;;;;;;2.00;1.30;;;;;;;19.73;49.65;102576.66;5036988;28;20026;-77
2021/03/18 10:55:43;;;;;;;4.38;1.25;;;;;;;19.73;49.66;102574.03;5037720;28;20036;-77
2021/03/18 10:58:14;;;;;;;1.98;1.38;;;;;;;19.63;49.59;102562.44;5037911;28;20092;-77
2021/03/18 11:00:41;;;;;;;2.15;1.40;;;;;;;19.67;49.98;102561.66;5036917;28;20131;-77
2021/03/18 11:03:07;;;;;;;1.95;1.20;;;;;;;19.75;49.77;102574.91;5032033;28;20087;-76
2021/03/18 11:05:51;;;;;;;0.90;0.75;;;;;;;19.63;49.51;102554.56;5054643;28;20030;-77
2021/03/18 11:08:26;;;;;;;1.63;0.90;;;;;;;19.69;49.60;102565.19;5027588;28;20104;-73
2021/03/18 11:10:53;;;;;;;2.13;1.35;;;;;;;19.72;49.39;102560.00;5036136;28;20028;-73
2021/03/18 11:13:25;;;;;;;1.58;0.85;;;;;;;19.76;49.76;102559.19;5037569;28;20032;-73
2021/03/18 11:15:52;;;;;;;4.05;1.90;;;;;;;19.84;49.84;102556.69;5047615;28;20387;-72
2021/03/18 11:18:18;;;;;;;2.75;1.63;;;;;;;19.85;49.96;102561.09;5045885;28;20093;-73
2021/03/18 11:20:45;;;;;;;4.63;1.77;;;;;;;19.88;50.00;102566.38;5025133;28;20056;-72
2021/03/18 11:23:13;;;;;;;1.80;1.38;;;;;;;19.92;50.15;102578.69;5066534;28;20025;-72
2021/03/18 11:25:40;;;;;;;4.05;1.30;;;;;;;19.97;50.15;102563.91;5039412;28;20504;-71
2021/03/18 11:28:12;;;;;;;3.88;1.50;;;;;;;19.96;50.10;102567.41;5054917;28;20020;-78
2021/03/18 11:30:38;;;;;;;2.28;1.50;;;;;;;19.93;50.19;102559.47;5058848;28;20033;-75
2021/03/18 11:33:08;;;;;;;3.30;2.00;;;;;;;19.94;50.36;102566.50;5037322;28;20028;-76
2021/03/18 11:35:33;;;;;;;2.38;1.33;;;;;;;19.94;50.54;102561.25;5049478;28;20078;-76